地図

経路データ

SID SEASON NUMBER BASIN SUBBASIN NAME ISO_TIME NATURE LAT LON WMO_WIND WMO_PRES WMO_AGENCY TRACK_TYPE DIST2LAND LANDFALL IFLAG USA_AGENCY USA_ATCF_ID USA_LAT USA_LON USA_RECORD USA_STATUS USA_WIND USA_PRES USA_SSHS USA_R34_NE USA_R34_SE USA_R34_SW USA_R34_NW USA_R50_NE USA_R50_SE USA_R50_SW USA_R50_NW USA_R64_NE USA_R64_SE USA_R64_SW USA_R64_NW USA_POCI USA_ROCI USA_RMW USA_EYE TOKYO_LAT TOKYO_LON TOKYO_GRADE TOKYO_WIND TOKYO_PRES TOKYO_R50_DIR TOKYO_R50_LONG TOKYO_R50_SHORT TOKYO_R30_DIR TOKYO_R30_LONG TOKYO_R30_SHORT TOKYO_LAND CMA_LAT CMA_LON CMA_CAT CMA_WIND CMA_PRES HKO_LAT HKO_LON HKO_CAT HKO_WIND HKO_PRES NEWDELHI_LAT NEWDELHI_LON NEWDELHI_GRADE NEWDELHI_WIND NEWDELHI_PRES NEWDELHI_CI NEWDELHI_DP NEWDELHI_POCI REUNION_LAT REUNION_LON REUNION_TYPE REUNION_WIND REUNION_PRES REUNION_TNUM REUNION_CI REUNION_RMW REUNION_R34_NE REUNION_R34_SE REUNION_R34_SW REUNION_R34_NW REUNION_R50_NE REUNION_R50_SE REUNION_R50_SW REUNION_R50_NW REUNION_R64_NE REUNION_R64_SE REUNION_R64_SW REUNION_R64_NW BOM_LAT BOM_LON BOM_TYPE BOM_WIND BOM_PRES BOM_TNUM BOM_CI BOM_RMW BOM_R34_NE BOM_R34_SE BOM_R34_SW BOM_R34_NW BOM_R50_NE BOM_R50_SE BOM_R50_SW BOM_R50_NW BOM_R64_NE BOM_R64_SE BOM_R64_SW BOM_R64_NW BOM_ROCI BOM_POCI BOM_EYE BOM_POS_METHOD BOM_PRES_METHOD NADI_LAT NADI_LON NADI_CAT NADI_WIND NADI_PRES WELLINGTON_LAT WELLINGTON_LON WELLINGTON_WIND WELLINGTON_PRES DS824_LAT DS824_LON DS824_STAGE DS824_WIND DS824_PRES TD9636_LAT TD9636_LON TD9636_STAGE TD9636_WIND TD9636_PRES TD9635_LAT TD9635_LON TD9635_WIND TD9635_PRES TD9635_ROCI NEUMANN_LAT NEUMANN_LON NEUMANN_CLASS NEUMANN_WIND NEUMANN_PRES MLC_LAT MLC_LON MLC_CLASS MLC_WIND MLC_PRES USA_GUST BOM_GUST BOM_GUST_PER REUNION_GUST REUNION_GUST_PER USA_SEAHGT USA_SEARAD_NE USA_SEARAD_SE USA_SEARAD_SW USA_SEARAD_NW STORM_SPEED STORM_DIR
1950345N06172 1950 112 WP MM ELLEN 1950-12-11 06:00:00 TS 6.00000 171.500 main 2003 1989 __O___________ -1 6.00000 171.500 0 1005 13 297
1950345N06172 1950 112 WP MM ELLEN 1950-12-11 09:00:00 TS 6.28264 170.940 main 1992 1986 __P___________ -1 6.28264 170.940 0 1005 13 299
1950345N06172 1950 112 WP MM ELLEN 1950-12-11 12:00:00 TS 6.60000 170.400 main 1990 1984 __O___________ -1 6.60000 170.400 1 29 1005 12 303
1950345N06172 1950 112 WP MM ELLEN 1950-12-11 15:00:00 TS 6.96492 169.893 main 1999 1992 __P___________ -1 6.96492 169.893 1 33 1002 12 305
1950345N06172 1950 112 WP MM ELLEN 1950-12-11 18:00:00 TS 7.30000 169.400 main 2001 1995 __O___________ -1 7.30000 169.400 2 38 1000 11 300
1950345N06172 1950 112 WP MM ELLEN 1950-12-11 21:00:00 TS 7.52239 168.915 main 1995 1990 __P___________ -1 7.52239 168.915 2 38 1000 11 292
1950345N06172 1950 112 WP MM ELLEN 1950-12-12 00:00:00 TS 7.70000 168.400 main 1991 1983 __O___________ -1 7.70000 168.400 2 38 1000 12 289
1950345N06172 1950 112 WP MM ELLEN 1950-12-12 03:00:00 TS 7.90751 167.808 main 1984 1978 __P___________ -1 7.90751 167.808 2 43 997 13 289
1950345N06172 1950 112 WP MM ELLEN 1950-12-12 06:00:00 TS 8.10000 167.200 main 1980 1971 __O___________ -1 8.10000 167.200 3 48 995 12 287
1950345N06172 1950 112 WP MM ELLEN 1950-12-12 09:00:00 TS 8.27242 166.635 main 1978 1971 __P___________ -1 8.27242 166.635 3 53 992 11 285
1950345N06172 1950 112 WP MM ELLEN 1950-12-12 12:00:00 TS 8.40000 166.100 main 1971 1958 __O___________ -1 8.40000 166.100 3 58 990 11 281
1950345N06172 1950 112 WP MM ELLEN 1950-12-12 15:00:00 TS 8.47241 165.592 main 1959 1930 __P___________ -1 8.47241 165.592 3 53 992 10 276
1950345N06172 1950 112 WP MM ELLEN 1950-12-12 18:00:00 TS 8.50000 165.100 main 1930 1899 __O___________ -1 8.50000 165.100 3 48 995 10 272
1950345N06172 1950 112 WP MM ELLEN 1950-12-12 21:00:00 TS 8.50744 164.600 main 1899 1869 __P___________ -1 8.50744 164.600 3 48 995 10 270
1950345N06172 1950 112 WP MM ELLEN 1950-12-13 00:00:00 TS 8.50000 164.100 main 1869 1835 __O___________ -1 8.50000 164.100 3 48 995 10 270
1950345N06172 1950 112 WP MM ELLEN 1950-12-13 03:00:00 TS 8.49994 163.600 main 1835 1799 __P___________ -1 8.49994 163.600 3 43 997 10 270
1950345N06172 1950 112 WP MM ELLEN 1950-12-13 06:00:00 TS 8.50000 163.100 main 1799 1764 __O___________ -1 8.50000 163.100 2 38 1000 10 270
1950345N06172 1950 112 WP MM ELLEN 1950-12-13 09:00:00 TS 8.49994 162.600 main 1764 1731 __P___________ -1 8.49994 162.600 2 33 1000 10 270
1950345N06172 1950 112 WP MM ELLEN 1950-12-13 12:00:00 TS 8.50000 162.100 main 1731 1698 __O___________ -1 8.50000 162.100 1 29 1000 10 270
1950345N06172 1950 112 WP MM ELLEN 1950-12-13 15:00:00 TS 8.50013 161.600 main 1698 1663 __P___________ -1 8.50013 161.600 1 1002 10 270
1950345N06172 1950 112 WP MM ELLEN 1950-12-13 18:00:00 TS 8.50000 161.100 main 1663 __O___________ -1 8.50000 161.100 0 1005 10 270

デジタル台風データ・検索

IBTrACS Databaseについて

本データベースは、米国NOAAが公開する1842年以降の世界の熱帯低気圧のベストトラックデータアーカイブInternational Best Track Archive for Climate Stewardship (IBTrACS)を、ウェブで閲覧しやすい形式に変換したものです。

最終更新日:2021-12-06